Airfield :
LOGIN :

Register | Disclaimer

   EN    FR    IT 

 










Legend :    VFR   Marginal VFR   IFR   Intensive IFR   Very Intensive IFR
Visi :
Ceiling :
>= 8 km
>= 3000ft
5 to 8 km
1000 to 3000 ft
1500m to 5 km
500 to 1000 ft
800 to 1500m
200 to 500 ft
< 800m
< 200 ft
Symbols :   Thunderstorms  Fog  Heavy snow  Heavy precipitations  Wind > 20 kt
SIGMETs :     Misc.  Thunderstorms  Icing  Turbulence  Mountain Waves  Volcanic Ashes






- Airport Elevation : 82 ft
- IATA code : QIE


LFMI - Istres

CURRENT METAR :
  • 172200Z AUTO 36013KT CAVOK 06/01 Q1027 TEMPO 35015G25KT

EXPIRED METARs :
  • 172130Z AUTO 35017KT CAVOK 06/01 Q1027 TEMPO 35015G25KT
  • 172100Z AUTO 36016KT CAVOK 06/01 Q1028 BECMG 35015G25KT
  • 172030Z AUTO 35016KT CAVOK 06/01 Q1028 BECMG 35015G25KT
  • 172000Z AUTO 35018KT CAVOK 07/01 Q1028 NOSIG
  • 171930Z AUTO 35014G24KT CAVOK 07/01 Q1028 BECMG 35018KT

TAF TAF LFMI
Valid from the 17 at 21:00 until the 18 at 21:00 UTC


172000Z 1721/1821 35015G25KT CAVOK TX12/1813Z TNM01/1807Z
BECMG 1723/1801 01010KT



MET'MAP, your aeronautical weather chart ! - Copyright ORBIFLY December 2007 - Disclaimer

ORBIFLY MET'MAP TEAM :

Programming & Development : Alexandra Zaïnal
Concept & original design : Baudouin d'Aumeries
Assistance for programming : Marc-Olivier Méhu
Technical & hardware support : Manuel Goepfert

Contact : metmap@orbifly.com




SOURCES & CREDITS :

   NOAA